sensor_id;sensor_type;location;lat;lon;timestamp;pressure;altitude;pressure_sealevel;temperature;humidity
17521;BME280;8878;-33.370;-70.552;2023-06-22T00:01:27;92274.13;;;17.14;53.15
17521;BME280;8878;-33.370;-70.552;2023-06-22T00:03:57;92268.09;;;17.22;51.38
17521;BME280;8878;-33.370;-70.552;2023-06-22T00:06:28;92278.25;;;17.20;49.56
17521;BME280;8878;-33.370;-70.552;2023-06-22T00:08:57;92269.72;;;17.32;47.18
17521;BME280;8878;-33.370;-70.552;2023-06-22T00:11:27;92275.44;;;17.62;49.29
17521;BME280;8878;-33.370;-70.552;2023-06-22T00:13:58;92284.09;;;17.45;52.17
17521;BME280;8878;-33.370;-70.552;2023-06-22T00:16:27;92279.97;;;17.39;51.16
17521;BME280;8878;-33.370;-70.552;2023-06-22T00:18:57;92280.13;;;17.42;51.80
17521;BME280;8878;-33.370;-70.552;2023-06-22T00:21:29;92272.63;;;17.44;52.33
17521;BME280;8878;-33.370;-70.552;2023-06-22T00:23:59;92266.00;;;17.42;52.55
17521;BME280;8878;-33.370;-70.552;2023-06-22T00:26:29;92277.00;;;17.40;53.03
17521;BME280;8878;-33.370;-70.552;2023-06-22T00:28:58;92289.84;;;17.38;53.40
17521;BME280;8878;-33.370;-70.552;2023-06-22T00:31:28;92293.97;;;17.22;53.03
17521;BME280;8878;-33.370;-70.552;2023-06-22T00:33:58;92300.56;;;17.25;53.87
17521;BME280;8878;-33.370;-70.552;2023-06-22T00:36:29;92288.69;;;17.08;53.32
17521;BME280;8878;-33.370;-70.552;2023-06-22T00:38:59;92297.41;;;17.22;53.34
17521;BME280;8878;-33.370;-70.552;2023-06-22T00:41:28;92305.19;;;17.33;53.32
17521;BME280;8878;-33.370;-70.552;2023-06-22T00:43:57;92309.03;;;17.27;54.28
17521;BME280;8878;-33.370;-70.552;2023-06-22T00:46:27;92312.97;;;17.07;53.79
17521;BME280;8878;-33.370;-70.552;2023-06-22T00:48:56;92309.63;;;17.01;52.92
17521;BME280;8878;-33.370;-70.552;2023-06-22T00:51:26;92313.75;;;17.07;51.65
17521;BME280;8878;-33.370;-70.552;2023-06-22T00:53:58;92312.75;;;17.17;53.24
17521;BME280;8878;-33.370;-70.552;2023-06-22T00:56:27;92326.53;;;16.97;53.68
17521;BME280;8878;-33.370;-70.552;2023-06-22T00:59:06;92331.00;;;16.88;53.43
17521;BME280;8878;-33.370;-70.552;2023-06-22T01:01:41;92334.69;;;17.00;50.22
17521;BME280;8878;-33.370;-70.552;2023-06-22T01:04:10;92334.88;;;17.17;51.16
17521;BME280;8878;-33.370;-70.552;2023-06-22T01:06:44;92349.38;;;17.25;52.39
17521;BME280;8878;-33.370;-70.552;2023-06-22T01:09:22;92357.03;;;17.27;52.88
17521;BME280;8878;-33.370;-70.552;2023-06-22T01:11:57;92352.91;;;17.20;50.14
17521;BME280;8878;-33.370;-70.552;2023-06-22T01:14:33;92355.44;;;17.39;51.76
17521;BME280;8878;-33.370;-70.552;2023-06-22T01:17:06;92356.75;;;17.28;54.71
17521;BME280;8878;-33.370;-70.552;2023-06-22T01:19:45;92354.72;;;17.11;55.12
17521;BME280;8878;-33.370;-70.552;2023-06-22T01:22:17;92358.28;;;17.07;56.51
17521;BME280;8878;-33.370;-70.552;2023-06-22T01:24:59;92363.84;;;16.97;57.17
17521;BME280;8878;-33.370;-70.552;2023-06-22T01:27:46;92368.78;;;16.90;56.96
17521;BME280;8878;-33.370;-70.552;2023-06-22T01:30:19;92372.25;;;16.90;57.30
17521;BME280;8878;-33.370;-70.552;2023-06-22T01:32:49;92374.50;;;16.97;56.98
17521;BME280;8878;-33.370;-70.552;2023-06-22T01:35:19;92373.81;;;16.91;56.27
17521;BME280;8878;-33.370;-70.552;2023-06-22T01:37:50;92374.84;;;16.68;55.03
17521;BME280;8878;-33.370;-70.552;2023-06-22T01:40:20;92381.03;;;16.77;55.20
17521;BME280;8878;-33.370;-70.552;2023-06-22T01:42:50;92377.69;;;16.71;58.56
17521;BME280;8878;-33.370;-70.552;2023-06-22T01:45:22;92375.78;;;16.44;60.20
17521;BME280;8878;-33.370;-70.552;2023-06-22T01:47:52;92360.69;;;16.54;59.76
17521;BME280;8878;-33.370;-70.552;2023-06-22T01:50:22;92349.84;;;16.77;57.67
17521;BME280;8878;-33.370;-70.552;2023-06-22T01:52:51;92340.28;;;16.90;57.67
17521;BME280;8878;-33.370;-70.552;2023-06-22T01:55:21;92329.13;;;16.88;58.00
17521;BME280;8878;-33.370;-70.552;2023-06-22T01:57:51;92315.13;;;16.82;58.62
17521;BME280;8878;-33.370;-70.552;2023-06-22T02:00:25;92313.97;;;16.61;60.64
17521;BME280;8878;-33.370;-70.552;2023-06-22T02:02:59;92303.50;;;16.65;59.28
17521;BME280;8878;-33.370;-70.552;2023-06-22T02:05:35;92298.03;;;16.70;58.70
17521;BME280;8878;-33.370;-70.552;2023-06-22T02:08:09;92321.63;;;16.49;59.85
17521;BME280;8878;-33.370;-70.552;2023-06-22T02:10:41;92307.84;;;16.33;60.75
17521;BME280;8878;-33.370;-70.552;2023-06-22T02:13:12;92292.63;;;16.20;60.66
17521;BME280;8878;-33.370;-70.552;2023-06-22T02:15:44;92293.34;;;16.26;60.58
17521;BME280;8878;-33.370;-70.552;2023-06-22T02:18:14;92285.53;;;16.29;60.79
17521;BME280;8878;-33.370;-70.552;2023-06-22T02:20:44;92291.94;;;16.01;60.53
17521;BME280;8878;-33.370;-70.552;2023-06-22T02:23:14;92264.03;;;15.85;61.69
17521;BME280;8878;-33.370;-70.552;2023-06-22T02:25:43;92265.34;;;16.15;60.09
17521;BME280;8878;-33.370;-70.552;2023-06-22T02:28:13;92273.31;;;16.28;60.82
17521;BME280;8878;-33.370;-70.552;2023-06-22T02:30:44;92269.78;;;16.19;59.70
17521;BME280;8878;-33.370;-70.552;2023-06-22T02:33:14;92250.06;;;15.93;59.64
17521;BME280;8878;-33.370;-70.552;2023-06-22T02:35:43;92227.78;;;16.16;59.03
17521;BME280;8878;-33.370;-70.552;2023-06-22T02:38:16;92237.44;;;16.26;58.33
17521;BME280;8878;-33.370;-70.552;2023-06-22T02:40:46;92238.41;;;16.43;58.10
17521;BME280;8878;-33.370;-70.552;2023-06-22T02:43:15;92232.69;;;16.36;58.39
17521;BME280;8878;-33.370;-70.552;2023-06-22T02:45:48;92245.41;;;16.39;56.99
17521;BME280;8878;-33.370;-70.552;2023-06-22T02:48:17;92235.22;;;16.41;56.17
17521;BME280;8878;-33.370;-70.552;2023-06-22T02:50:46;92222.88;;;16.10;55.26
17521;BME280;8878;-33.370;-70.552;2023-06-22T02:53:16;92231.41;;;16.48;55.36
17521;BME280;8878;-33.370;-70.552;2023-06-22T02:55:45;92217.47;;;16.64;54.17
17521;BME280;8878;-33.370;-70.552;2023-06-22T02:58:15;92227.97;;;16.83;52.83
17521;BME280;8878;-33.370;-70.552;2023-06-22T03:00:47;92225.31;;;16.83;50.89
17521;BME280;8878;-33.370;-70.552;2023-06-22T03:03:20;92230.03;;;17.08;51.44
17521;BME280;8878;-33.370;-70.552;2023-06-22T03:05:49;92224.84;;;17.26;50.65
17521;BME280;8878;-33.370;-70.552;2023-06-22T03:08:19;92223.19;;;17.16;49.91
17521;BME280;8878;-33.370;-70.552;2023-06-22T03:10:49;92221.31;;;17.16;51.13
17521;BME280;8878;-33.370;-70.552;2023-06-22T03:13:18;92231.34;;;17.19;49.71
17521;BME280;8878;-33.370;-70.552;2023-06-22T03:15:49;92228.56;;;17.47;49.40
17521;BME280;8878;-33.370;-70.552;2023-06-22T03:18:19;92214.19;;;17.34;50.10
17521;BME280;8878;-33.370;-70.552;2023-06-22T03:20:49;92211.00;;;17.46;49.30
17521;BME280;8878;-33.370;-70.552;2023-06-22T03:23:18;92221.38;;;17.47;50.17
17521;BME280;8878;-33.370;-70.552;2023-06-22T03:25:48;92225.56;;;17.48;50.37
17521;BME280;8878;-33.370;-70.552;2023-06-22T03:28:17;92208.53;;;17.58;50.62
17521;BME280;8878;-33.370;-70.552;2023-06-22T03:30:49;92210.13;;;17.59;49.99
17521;BME280;8878;-33.370;-70.552;2023-06-22T03:33:18;92207.09;;;17.52;49.55
17521;BME280;8878;-33.370;-70.552;2023-06-22T03:35:47;92198.63;;;17.28;49.73
17521;BME280;8878;-33.370;-70.552;2023-06-22T03:38:17;92195.84;;;17.33;49.57
17521;BME280;8878;-33.370;-70.552;2023-06-22T03:40:47;92200.22;;;17.29;47.95
17521;BME280;8878;-33.370;-70.552;2023-06-22T03:43:17;92195.88;;;17.41;48.70
17521;BME280;8878;-33.370;-70.552;2023-06-22T03:45:48;92183.31;;;17.33;49.27
17521;BME280;8878;-33.370;-70.552;2023-06-22T03:48:18;92185.31;;;17.28;49.38
17521;BME280;8878;-33.370;-70.552;2023-06-22T03:50:47;92189.69;;;17.23;49.08
17521;BME280;8878;-33.370;-70.552;2023-06-22T03:53:16;92178.16;;;17.14;49.89
17521;BME280;8878;-33.370;-70.552;2023-06-22T03:55:49;92178.38;;;17.18;49.40
17521;BME280;8878;-33.370;-70.552;2023-06-22T03:58:19;92170.81;;;17.20;49.81
17521;BME280;8878;-33.370;-70.552;2023-06-22T04:00:52;92171.59;;;17.43;49.54
17521;BME280;8878;-33.370;-70.552;2023-06-22T04:03:22;92163.28;;;17.44;49.29
17521;BME280;8878;-33.370;-70.552;2023-06-22T04:05:52;92162.34;;;17.49;48.87
17521;BME280;8878;-33.370;-70.552;2023-06-22T04:08:21;92162.94;;;17.37;48.03
17521;BME280;8878;-33.370;-70.552;2023-06-22T04:10:51;92167.22;;;17.47;48.53
17521;BME280;8878;-33.370;-70.552;2023-06-22T04:13:21;92160.91;;;17.43;49.05
17521;BME280;8878;-33.370;-70.552;2023-06-22T04:15:52;92162.41;;;17.27;49.72
17521;BME280;8878;-33.370;-70.552;2023-06-22T04:18:22;92154.00;;;17.42;49.39
17521;BME280;8878;-33.370;-70.552;2023-06-22T04:20:51;92150.88;;;17.40;49.45
17521;BME280;8878;-33.370;-70.552;2023-06-22T04:23:21;92169.19;;;17.33;49.95
17521;BME280;8878;-33.370;-70.552;2023-06-22T04:25:50;92163.09;;;17.10;50.24
17521;BME280;8878;-33.370;-70.552;2023-06-22T04:28:20;92160.94;;;17.20;49.35
17521;BME280;8878;-33.370;-70.552;2023-06-22T04:30:51;92169.63;;;17.26;49.48
17521;BME280;8878;-33.370;-70.552;2023-06-22T04:33:25;92154.34;;;17.40;50.16
17521;BME280;8878;-33.370;-70.552;2023-06-22T04:35:54;92157.84;;;17.27;50.30
17521;BME280;8878;-33.370;-70.552;2023-06-22T04:38:25;92153.19;;;17.33;51.64
17521;BME280;8878;-33.370;-70.552;2023-06-22T04:40:54;92149.47;;;17.42;51.41
17521;BME280;8878;-33.370;-70.552;2023-06-22T04:43:24;92142.78;;;17.22;50.86
17521;BME280;8878;-33.370;-70.552;2023-06-22T04:45:58;92145.06;;;17.38;50.82
17521;BME280;8878;-33.370;-70.552;2023-06-22T04:48:30;92151.13;;;17.30;51.32
17521;BME280;8878;-33.370;-70.552;2023-06-22T04:51:01;92122.50;;;17.13;50.37
17521;BME280;8878;-33.370;-70.552;2023-06-22T04:53:31;92143.50;;;16.61;53.48
17521;BME280;8878;-33.370;-70.552;2023-06-22T04:56:01;92149.59;;;16.84;53.79
17521;BME280;8878;-33.370;-70.552;2023-06-22T04:58:31;92147.56;;;16.81;53.54
17521;BME280;8878;-33.370;-70.552;2023-06-22T05:01:02;92156.28;;;16.95;53.55
17521;BME280;8878;-33.370;-70.552;2023-06-22T05:03:32;92149.97;;;16.69;53.50
17521;BME280;8878;-33.370;-70.552;2023-06-22T05:06:03;92152.69;;;16.77;52.79
17521;BME280;8878;-33.370;-70.552;2023-06-22T05:08:32;92149.78;;;16.88;53.45
17521;BME280;8878;-33.370;-70.552;2023-06-22T05:11:02;92154.19;;;16.92;53.96
17521;BME280;8878;-33.370;-70.552;2023-06-22T05:13:32;92160.28;;;16.48;55.48
17521;BME280;8878;-33.370;-70.552;2023-06-22T05:16:03;92167.25;;;16.58;55.81
17521;BME280;8878;-33.370;-70.552;2023-06-22T05:18:32;92176.28;;;16.48;56.49
17521;BME280;8878;-33.370;-70.552;2023-06-22T05:21:02;92179.59;;;16.54;56.46
17521;BME280;8878;-33.370;-70.552;2023-06-22T05:23:32;92187.38;;;16.00;58.36
17521;BME280;8878;-33.370;-70.552;2023-06-22T05:26:03;92205.84;;;15.56;60.58
17521;BME280;8878;-33.370;-70.552;2023-06-22T05:28:33;92205.19;;;15.45;61.84
17521;BME280;8878;-33.370;-70.552;2023-06-22T05:31:05;92217.84;;;15.67;61.73
17521;BME280;8878;-33.370;-70.552;2023-06-22T05:33:34;92223.66;;;15.55;62.47
17521;BME280;8878;-33.370;-70.552;2023-06-22T05:36:04;92239.00;;;15.72;62.17
17521;BME280;8878;-33.370;-70.552;2023-06-22T05:38:34;92245.56;;;15.47;63.10
17521;BME280;8878;-33.370;-70.552;2023-06-22T05:41:04;92246.41;;;15.29;63.90
17521;BME280;8878;-33.370;-70.552;2023-06-22T05:43:33;92246.53;;;15.70;63.01
17521;BME280;8878;-33.370;-70.552;2023-06-22T05:46:05;92258.81;;;15.66;63.03
17521;BME280;8878;-33.370;-70.552;2023-06-22T05:48:34;92263.47;;;15.88;62.65
17521;BME280;8878;-33.370;-70.552;2023-06-22T05:51:04;92258.75;;;15.98;62.32
17521;BME280;8878;-33.370;-70.552;2023-06-22T05:53:33;92255.59;;;15.96;62.65
17521;BME280;8878;-33.370;-70.552;2023-06-22T05:56:02;92267.59;;;16.08;62.25
17521;BME280;8878;-33.370;-70.552;2023-06-22T05:58:32;92273.31;;;16.01;62.31
17521;BME280;8878;-33.370;-70.552;2023-06-22T06:01:03;92271.28;;;16.12;60.88
17521;BME280;8878;-33.370;-70.552;2023-06-22T06:03:32;92278.06;;;16.31;59.59
17521;BME280;8878;-33.370;-70.552;2023-06-22T06:06:08;92289.47;;;16.45;59.46
17521;BME280;8878;-33.370;-70.552;2023-06-22T06:08:38;92295.22;;;16.39;59.77
17521;BME280;8878;-33.370;-70.552;2023-06-22T06:11:07;92309.09;;;16.36;61.11
17521;BME280;8878;-33.370;-70.552;2023-06-22T06:13:37;92312.38;;;16.19;59.72
17521;BME280;8878;-33.370;-70.552;2023-06-22T06:16:08;92338.09;;;16.37;60.69
17521;BME280;8878;-33.370;-70.552;2023-06-22T06:18:37;92351.13;;;16.12;63.32
17521;BME280;8878;-33.370;-70.552;2023-06-22T06:21:07;92371.81;;;15.69;64.46
17521;BME280;8878;-33.370;-70.552;2023-06-22T06:23:36;92386.41;;;14.96;66.54
17521;BME280;8878;-33.370;-70.552;2023-06-22T06:26:06;92395.44;;;14.95;67.60
17521;BME280;8878;-33.370;-70.552;2023-06-22T06:28:35;92389.78;;;15.02;68.39
17521;BME280;8878;-33.370;-70.552;2023-06-22T06:31:04;92411.81;;;14.60;70.36
17521;BME280;8878;-33.370;-70.552;2023-06-22T06:33:37;92417.44;;;15.01;70.36
17521;BME280;8878;-33.370;-70.552;2023-06-22T06:36:07;92431.81;;;15.18;69.42
17521;BME280;8878;-33.370;-70.552;2023-06-22T06:38:36;92442.63;;;14.61;70.50
17521;BME280;8878;-33.370;-70.552;2023-06-22T06:41:05;92443.88;;;15.11;71.33
17521;BME280;8878;-33.370;-70.552;2023-06-22T06:43:34;92451.56;;;15.31;71.51
17521;BME280;8878;-33.370;-70.552;2023-06-22T06:46:04;92441.38;;;15.38;72.16
17521;BME280;8878;-33.370;-70.552;2023-06-22T06:48:33;92450.50;;;15.51;70.51
17521;BME280;8878;-33.370;-70.552;2023-06-22T06:51:04;92444.97;;;15.47;69.35
17521;BME280;8878;-33.370;-70.552;2023-06-22T06:53:37;92451.19;;;15.61;71.60
17521;BME280;8878;-33.370;-70.552;2023-06-22T06:56:07;92452.00;;;15.19;73.40
17521;BME280;8878;-33.370;-70.552;2023-06-22T06:58:37;92461.34;;;14.93;74.72
17521;BME280;8878;-33.370;-70.552;2023-06-22T07:01:07;92462.47;;;15.11;74.95
17521;BME280;8878;-33.370;-70.552;2023-06-22T07:03:36;92468.00;;;15.14;75.00
17521;BME280;8878;-33.370;-70.552;2023-06-22T07:06:08;92467.72;;;15.16;75.41
17521;BME280;8878;-33.370;-70.552;2023-06-22T07:08:38;92466.56;;;15.22;75.84
17521;BME280;8878;-33.370;-70.552;2023-06-22T07:11:07;92457.09;;;15.35;75.57
17521;BME280;8878;-33.370;-70.552;2023-06-22T07:13:37;92472.19;;;15.39;75.17
17521;BME280;8878;-33.370;-70.552;2023-06-22T07:16:06;92475.69;;;15.16;75.86
17521;BME280;8878;-33.370;-70.552;2023-06-22T07:18:36;92485.53;;;15.15;75.95
17521;BME280;8878;-33.370;-70.552;2023-06-22T07:21:07;92491.09;;;15.19;75.65
17521;BME280;8878;-33.370;-70.552;2023-06-22T07:23:36;92497.31;;;15.28;75.54
17521;BME280;8878;-33.370;-70.552;2023-06-22T07:26:06;92502.25;;;14.97;75.90
17521;BME280;8878;-33.370;-70.552;2023-06-22T07:28:35;92503.97;;;15.07;76.62
17521;BME280;8878;-33.370;-70.552;2023-06-22T07:31:05;92500.63;;;15.20;76.79
17521;BME280;8878;-33.370;-70.552;2023-06-22T07:33:35;92495.78;;;15.03;76.94
17521;BME280;8878;-33.370;-70.552;2023-06-22T07:36:08;92488.25;;;14.86;77.70
17521;BME280;8878;-33.370;-70.552;2023-06-22T07:38:38;92478.88;;;14.94;77.62
17521;BME280;8878;-33.370;-70.552;2023-06-22T07:41:07;92464.63;;;15.09;78.30
17521;BME280;8878;-33.370;-70.552;2023-06-22T07:43:37;92462.25;;;15.07;78.66
17521;BME280;8878;-33.370;-70.552;2023-06-22T07:46:06;92476.56;;;14.87;78.40
17521;BME280;8878;-33.370;-70.552;2023-06-22T07:48:37;92492.06;;;14.80;78.86
17521;BME280;8878;-33.370;-70.552;2023-06-22T07:51:10;92493.09;;;14.84;78.62
17521;BME280;8878;-33.370;-70.552;2023-06-22T07:53:41;92482.38;;;14.66;79.85
17521;BME280;8878;-33.370;-70.552;2023-06-22T07:56:11;92474.63;;;14.93;79.53
17521;BME280;8878;-33.370;-70.552;2023-06-22T07:58:41;92467.53;;;14.88;79.45
17521;BME280;8878;-33.370;-70.552;2023-06-22T08:01:10;92466.13;;;14.72;80.07
17521;BME280;8878;-33.370;-70.552;2023-06-22T08:03:40;92446.97;;;14.75;80.23
17521;BME280;8878;-33.370;-70.552;2023-06-22T08:06:11;92434.25;;;14.72;80.13
17521;BME280;8878;-33.370;-70.552;2023-06-22T08:08:40;92421.47;;;14.74;80.08
17521;BME280;8878;-33.370;-70.552;2023-06-22T08:11:15;92416.41;;;14.54;80.79
17521;BME280;8878;-33.370;-70.552;2023-06-22T08:13:44;92411.25;;;14.39;81.56
17521;BME280;8878;-33.370;-70.552;2023-06-22T08:16:14;92400.69;;;14.34;81.70
17521;BME280;8878;-33.370;-70.552;2023-06-22T08:18:43;92385.00;;;14.61;80.43
17521;BME280;8878;-33.370;-70.552;2023-06-22T08:21:14;92386.78;;;14.66;79.86
17521;BME280;8878;-33.370;-70.552;2023-06-22T08:23:44;92375.06;;;14.48;79.81
17521;BME280;8878;-33.370;-70.552;2023-06-22T08:26:14;92359.50;;;14.60;79.38
17521;BME280;8878;-33.370;-70.552;2023-06-22T08:28:44;92339.22;;;14.69;78.67
17521;BME280;8878;-33.370;-70.552;2023-06-22T08:31:13;92335.91;;;14.59;78.58
17521;BME280;8878;-33.370;-70.552;2023-06-22T08:33:42;92339.94;;;14.56;78.27
17521;BME280;8878;-33.370;-70.552;2023-06-22T08:36:14;92325.00;;;14.60;78.84
17521;BME280;8878;-33.370;-70.552;2023-06-22T08:38:44;92319.19;;;14.58;78.97
17521;BME280;8878;-33.370;-70.552;2023-06-22T08:41:17;92298.72;;;14.40;80.01
17521;BME280;8878;-33.370;-70.552;2023-06-22T08:43:46;92290.75;;;14.59;80.10
17521;BME280;8878;-33.370;-70.552;2023-06-22T08:46:15;92268.72;;;14.39;80.14
17521;BME280;8878;-33.370;-70.552;2023-06-22T08:48:48;92281.66;;;14.46;81.12
17521;BME280;8878;-33.370;-70.552;2023-06-22T08:51:19;92268.88;;;14.48;80.01
17521;BME280;8878;-33.370;-70.552;2023-06-22T08:53:49;92236.34;;;14.19;82.12
17521;BME280;8878;-33.370;-70.552;2023-06-22T08:56:18;92263.75;;;14.33;80.85
17521;BME280;8878;-33.370;-70.552;2023-06-22T08:58:47;92254.19;;;14.56;80.22
17521;BME280;8878;-33.370;-70.552;2023-06-22T09:01:17;92249.94;;;14.73;79.58
17521;BME280;8878;-33.370;-70.552;2023-06-22T09:03:46;92253.88;;;14.76;79.26
17521;BME280;8878;-33.370;-70.552;2023-06-22T09:06:23;92240.19;;;14.69;79.53
17521;BME280;8878;-33.370;-70.552;2023-06-22T09:08:53;92232.47;;;14.86;79.21
17521;BME280;8878;-33.370;-70.552;2023-06-22T09:11:22;92238.75;;;14.76;79.50
17521;BME280;8878;-33.370;-70.552;2023-06-22T09:13:52;92239.13;;;14.70;80.14
17521;BME280;8878;-33.370;-70.552;2023-06-22T09:16:21;92222.47;;;14.45;80.10
17521;BME280;8878;-33.370;-70.552;2023-06-22T09:18:51;92227.47;;;14.66;79.67
17521;BME280;8878;-33.370;-70.552;2023-06-22T09:21:24;92243.25;;;14.76;77.80
17521;BME280;8878;-33.370;-70.552;2023-06-22T09:23:53;92263.06;;;14.83;76.03
17521;BME280;8878;-33.370;-70.552;2023-06-22T09:26:23;92284.81;;;15.04;75.82
17521;BME280;8878;-33.370;-70.552;2023-06-22T09:28:53;92302.31;;;14.86;76.81
17521;BME280;8878;-33.370;-70.552;2023-06-22T09:31:23;92317.28;;;14.82;77.08
17521;BME280;8878;-33.370;-70.552;2023-06-22T09:33:54;92359.50;;;14.36;77.69
17521;BME280;8878;-33.370;-70.552;2023-06-22T09:36:25;92376.59;;;14.01;80.70
17521;BME280;8878;-33.370;-70.552;2023-06-22T09:38:54;92389.53;;;14.08;81.38
17521;BME280;8878;-33.370;-70.552;2023-06-22T09:41:25;92371.91;;;14.46;79.66
17521;BME280;8878;-33.370;-70.552;2023-06-22T09:43:55;92369.28;;;14.65;78.20
17521;BME280;8878;-33.370;-70.552;2023-06-22T09:46:24;92379.53;;;14.71;78.13
17521;BME280;8878;-33.370;-70.552;2023-06-22T09:48:54;92349.84;;;14.69;78.79
17521;BME280;8878;-33.370;-70.552;2023-06-22T09:51:25;92304.00;;;14.82;79.65
17521;BME280;8878;-33.370;-70.552;2023-06-22T09:53:54;92293.28;;;14.69;79.30
17521;BME280;8878;-33.370;-70.552;2023-06-22T09:56:25;92279.66;;;14.75;78.20
17521;BME280;8878;-33.370;-70.552;2023-06-22T09:58:55;92280.38;;;14.62;78.13
17521;BME280;8878;-33.370;-70.552;2023-06-22T10:01:24;92277.56;;;14.72;78.31
17521;BME280;8878;-33.370;-70.552;2023-06-22T10:03:54;92282.94;;;14.86;77.83
17521;BME280;8878;-33.370;-70.552;2023-06-22T10:06:25;92274.19;;;14.85;78.09
17521;BME280;8878;-33.370;-70.552;2023-06-22T10:08:54;92270.25;;;14.83;77.96
17521;BME280;8878;-33.370;-70.552;2023-06-22T10:11:24;92257.03;;;14.78;78.38
17521;BME280;8878;-33.370;-70.552;2023-06-22T10:13:56;92259.56;;;14.69;78.44
17521;BME280;8878;-33.370;-70.552;2023-06-22T10:16:31;92241.38;;;14.58;79.17
17521;BME280;8878;-33.370;-70.552;2023-06-22T10:19:02;92238.31;;;14.69;79.11
17521;BME280;8878;-33.370;-70.552;2023-06-22T10:21:34;92258.97;;;14.72;78.91
17521;BME280;8878;-33.370;-70.552;2023-06-22T10:24:03;92273.63;;;14.70;79.39
17521;BME280;8878;-33.370;-70.552;2023-06-22T10:26:34;92265.44;;;14.66;79.61
17521;BME280;8878;-33.370;-70.552;2023-06-22T10:29:04;92270.25;;;14.83;78.79
17521;BME280;8878;-33.370;-70.552;2023-06-22T10:31:33;92271.84;;;14.84;78.17
17521;BME280;8878;-33.370;-70.552;2023-06-22T10:34:02;92270.75;;;14.66;75.87
17521;BME280;8878;-33.370;-70.552;2023-06-22T10:36:34;92263.56;;;14.67;77.08
17521;BME280;8878;-33.370;-70.552;2023-06-22T10:39:03;92245.41;;;14.74;77.09
17521;BME280;8878;-33.370;-70.552;2023-06-22T10:41:32;92238.94;;;14.80;77.20
17521;BME280;8878;-33.370;-70.552;2023-06-22T10:44:02;92215.63;;;14.77;77.40
17521;BME280;8878;-33.370;-70.552;2023-06-22T10:46:33;92190.53;;;14.69;77.33
17521;BME280;8878;-33.370;-70.552;2023-06-22T10:49:02;92200.06;;;14.52;76.99
17521;BME280;8878;-33.370;-70.552;2023-06-22T10:51:34;92206.75;;;14.68;77.22
17521;BME280;8878;-33.370;-70.552;2023-06-22T10:54:03;92211.06;;;14.96;75.90
17521;BME280;8878;-33.370;-70.552;2023-06-22T10:56:33;92204.97;;;14.96;76.31
17521;BME280;8878;-33.370;-70.552;2023-06-22T10:59:02;92199.97;;;15.08;75.84
17521;BME280;8878;-33.370;-70.552;2023-06-22T11:01:31;92178.91;;;14.98;76.08
17521;BME280;8878;-33.370;-70.552;2023-06-22T11:04:01;92176.16;;;15.03;76.69
17521;BME280;8878;-33.370;-70.552;2023-06-22T11:06:34;92160.63;;;15.10;76.37
17521;BME280;8878;-33.370;-70.552;2023-06-22T11:09:03;92158.13;;;15.00;77.16
17521;BME280;8878;-33.370;-70.552;2023-06-22T11:11:32;92159.13;;;14.90;77.38
17521;BME280;8878;-33.370;-70.552;2023-06-22T11:14:02;92163.91;;;14.88;77.70
17521;BME280;8878;-33.370;-70.552;2023-06-22T11:16:31;92177.00;;;14.84;78.69
17521;BME280;8878;-33.370;-70.552;2023-06-22T11:19:02;92196.06;;;14.54;80.33
17521;BME280;8878;-33.370;-70.552;2023-06-22T11:21:33;92207.94;;;13.77;84.03
17521;BME280;8878;-33.370;-70.552;2023-06-22T11:24:04;92214.41;;;13.65;85.20
17521;BME280;8878;-33.370;-70.552;2023-06-22T11:26:34;92213.16;;;13.34;88.52
17521;BME280;8878;-33.370;-70.552;2023-06-22T11:29:03;92206.97;;;13.15;89.80
17521;BME280;8878;-33.370;-70.552;2023-06-22T11:31:36;92205.03;;;13.25;90.37
17521;BME280;8878;-33.370;-70.552;2023-06-22T11:34:05;92200.25;;;13.75;88.33
17521;BME280;8878;-33.370;-70.552;2023-06-22T11:36:36;92176.28;;;14.23;86.54
17521;BME280;8878;-33.370;-70.552;2023-06-22T11:39:08;92184.84;;;14.20;85.49
17521;BME280;8878;-33.370;-70.552;2023-06-22T11:41:38;92192.88;;;14.33;84.55
17521;BME280;8878;-33.370;-70.552;2023-06-22T11:44:08;92207.25;;;14.51;83.72
17521;BME280;8878;-33.370;-70.552;2023-06-22T11:46:38;92218.66;;;14.70;83.50
17521;BME280;8878;-33.370;-70.552;2023-06-22T11:49:08;92232.06;;;14.60;83.37
17521;BME280;8878;-33.370;-70.552;2023-06-22T11:51:41;92236.16;;;14.71;82.59
17521;BME280;8878;-33.370;-70.552;2023-06-22T11:54:10;92255.19;;;14.41;84.73
17521;BME280;8878;-33.370;-70.552;2023-06-22T11:56:39;92257.25;;;14.44;84.55
17521;BME280;8878;-33.370;-70.552;2023-06-22T11:59:09;92272.84;;;14.27;85.76
17521;BME280;8878;-33.370;-70.552;2023-06-22T12:01:38;92282.38;;;14.52;84.77
17521;BME280;8878;-33.370;-70.552;2023-06-22T12:04:07;92294.88;;;14.70;84.07
17521;BME280;8878;-33.370;-70.552;2023-06-22T12:06:40;92318.19;;;14.73;83.83
17521;BME280;8878;-33.370;-70.552;2023-06-22T12:09:10;92314.25;;;14.70;84.14
17521;BME280;8878;-33.370;-70.552;2023-06-22T12:11:40;92295.84;;;14.93;83.46
17521;BME280;8878;-33.370;-70.552;2023-06-22T12:14:10;92307.63;;;14.86;83.36
17521;BME280;8878;-33.370;-70.552;2023-06-22T12:16:39;92324.28;;;14.73;83.73
17521;BME280;8878;-33.370;-70.552;2023-06-22T12:19:12;92313.59;;;14.36;84.55
17521;BME280;8878;-33.370;-70.552;2023-06-22T12:21:43;92332.16;;;14.41;84.72
17521;BME280;8878;-33.370;-70.552;2023-06-22T12:24:13;92349.34;;;14.43;85.67
17521;BME280;8878;-33.370;-70.552;2023-06-22T12:26:42;92358.22;;;14.58;85.25
17521;BME280;8878;-33.370;-70.552;2023-06-22T12:29:12;92350.31;;;14.53;84.71
17521;BME280;8878;-33.370;-70.552;2023-06-22T12:31:42;92329.31;;;14.56;84.46
17521;BME280;8878;-33.370;-70.552;2023-06-22T12:34:12;92282.38;;;14.70;84.23
17521;BME280;8878;-33.370;-70.552;2023-06-22T12:36:44;92294.72;;;14.61;84.84
17521;BME280;8878;-33.370;-70.552;2023-06-22T12:39:14;92322.63;;;14.59;84.94
17521;BME280;8878;-33.370;-70.552;2023-06-22T12:41:43;92328.44;;;14.79;83.95
17521;BME280;8878;-33.370;-70.552;2023-06-22T12:44:13;92342.16;;;14.49;84.88
17521;BME280;8878;-33.370;-70.552;2023-06-22T12:46:42;92358.56;;;14.51;85.14
17521;BME280;8878;-33.370;-70.552;2023-06-22T12:49:11;92362.97;;;14.61;84.92
17521;BME280;8878;-33.370;-70.552;2023-06-22T12:51:43;92374.69;;;14.78;84.81
17521;BME280;8878;-33.370;-70.552;2023-06-22T12:54:13;92387.41;;;14.81;84.61
17521;BME280;8878;-33.370;-70.552;2023-06-22T12:56:42;92389.78;;;14.83;84.32